sensor_id;sensor_type;location;lat;lon;timestamp;temperature;humidity
57576;DHT22;43412;-33.800;150.804;2023-05-27T00:00:24;22.40;84.80
57576;DHT22;43412;-33.800;150.804;2023-05-27T00:02:52;22.50;82.80
57576;DHT22;43412;-33.800;150.804;2023-05-27T00:05:19;22.40;83.30
57576;DHT22;43412;-33.800;150.804;2023-05-27T00:07:46;22.80;83.80
57576;DHT22;43412;-33.800;150.804;2023-05-27T00:10:14;23.00;82.40
57576;DHT22;43412;-33.800;150.804;2023-05-27T00:12:41;23.30;82.50
57576;DHT22;43412;-33.800;150.804;2023-05-27T00:15:09;24.10;79.90
57576;DHT22;43412;-33.800;150.804;2023-05-27T00:17:36;24.50;79.20
57576;DHT22;43412;-33.800;150.804;2023-05-27T00:20:06;24.10;79.80
57576;DHT22;43412;-33.800;150.804;2023-05-27T00:22:35;23.90;80.80
57576;DHT22;43412;-33.800;150.804;2023-05-27T00:25:03;24.00;80.20
57576;DHT22;43412;-33.800;150.804;2023-05-27T00:27:30;24.10;79.40
57576;DHT22;43412;-33.800;150.804;2023-05-27T00:29:58;24.10;80.30
57576;DHT22;43412;-33.800;150.804;2023-05-27T00:32:25;24.20;79.60
57576;DHT22;43412;-33.800;150.804;2023-05-27T00:34:52;24.30;80.10
57576;DHT22;43412;-33.800;150.804;2023-05-27T00:37:19;24.50;79.20
57576;DHT22;43412;-33.800;150.804;2023-05-27T00:39:47;24.30;79.90
57576;DHT22;43412;-33.800;150.804;2023-05-27T00:42:14;24.40;79.00
57576;DHT22;43412;-33.800;150.804;2023-05-27T00:44:42;24.80;78.80
57576;DHT22;43412;-33.800;150.804;2023-05-27T00:47:09;24.80;79.30
57576;DHT22;43412;-33.800;150.804;2023-05-27T00:49:38;25.00;78.00
57576;DHT22;43412;-33.800;150.804;2023-05-27T00:52:06;25.30;77.50
57576;DHT22;43412;-33.800;150.804;2023-05-27T00:54:33;25.30;77.00
57576;DHT22;43412;-33.800;150.804;2023-05-27T00:57:01;25.70;77.90
57576;DHT22;43412;-33.800;150.804;2023-05-27T00:59:29;26.30;76.80
57576;DHT22;43412;-33.800;150.804;2023-05-27T01:01:56;26.10;76.60
57576;DHT22;43412;-33.800;150.804;2023-05-27T01:04:25;26.00;77.40
57576;DHT22;43412;-33.800;150.804;2023-05-27T01:12:25;26.60;77.20
57576;DHT22;43412;-33.800;150.804;2023-05-27T01:14:56;27.00;75.80
57576;DHT22;43412;-33.800;150.804;2023-05-27T01:17:25;27.30;74.90
57576;DHT22;43412;-33.800;150.804;2023-05-27T01:19:54;27.20;74.10
57576;DHT22;43412;-33.800;150.804;2023-05-27T01:22:29;27.50;74.70
57576;DHT22;43412;-33.800;150.804;2023-05-27T01:24:57;27.40;73.30
57576;DHT22;43412;-33.800;150.804;2023-05-27T01:27:24;27.40;73.70
57576;DHT22;43412;-33.800;150.804;2023-05-27T01:29:53;27.40;73.80
57576;DHT22;43412;-33.800;150.804;2023-05-27T01:32:53;27.40;74.20
57576;DHT22;43412;-33.800;150.804;2023-05-27T01:35:29;27.20;74.20
57576;DHT22;43412;-33.800;150.804;2023-05-27T01:38:01;27.70;74.20
57576;DHT22;43412;-33.800;150.804;2023-05-27T01:40:29;27.60;73.70
57576;DHT22;43412;-33.800;150.804;2023-05-27T01:42:57;27.60;72.90
57576;DHT22;43412;-33.800;150.804;2023-05-27T01:45:26;27.30;72.60
57576;DHT22;43412;-33.800;150.804;2023-05-27T01:47:54;27.50;71.90
57576;DHT22;43412;-33.800;150.804;2023-05-27T01:50:21;27.30;73.30
57576;DHT22;43412;-33.800;150.804;2023-05-27T01:52:48;27.50;73.60
57576;DHT22;43412;-33.800;150.804;2023-05-27T01:55:16;27.70;73.60
57576;DHT22;43412;-33.800;150.804;2023-05-27T01:57:44;27.70;73.20
57576;DHT22;43412;-33.800;150.804;2023-05-27T02:00:12;27.90;72.70
57576;DHT22;43412;-33.800;150.804;2023-05-27T02:02:40;28.10;71.60
57576;DHT22;43412;-33.800;150.804;2023-05-27T02:05:07;28.20;71.00
57576;DHT22;43412;-33.800;150.804;2023-05-27T02:07:37;28.30;71.00
57576;DHT22;43412;-33.800;150.804;2023-05-27T02:10:05;28.40;70.60
57576;DHT22;43412;-33.800;150.804;2023-05-27T02:12:33;28.10;70.50
57576;DHT22;43412;-33.800;150.804;2023-05-27T02:15:01;28.10;69.80
57576;DHT22;43412;-33.800;150.804;2023-05-27T02:17:28;28.00;71.10
57576;DHT22;43412;-33.800;150.804;2023-05-27T02:19:55;28.10;69.10
57576;DHT22;43412;-33.800;150.804;2023-05-27T02:22:23;28.20;69.40
57576;DHT22;43412;-33.800;150.804;2023-05-27T02:24:50;28.30;69.70
57576;DHT22;43412;-33.800;150.804;2023-05-27T02:27:18;28.30;67.80
57576;DHT22;43412;-33.800;150.804;2023-05-27T02:29:48;28.30;68.70
57576;DHT22;43412;-33.800;150.804;2023-05-27T02:32:15;28.00;66.70
57576;DHT22;43412;-33.800;150.804;2023-05-27T02:34:43;27.80;67.30
57576;DHT22;43412;-33.800;150.804;2023-05-27T02:37:11;27.30;66.70
57576;DHT22;43412;-33.800;150.804;2023-05-27T02:39:39;26.50;68.10
57576;DHT22;43412;-33.800;150.804;2023-05-27T02:42:07;26.30;69.20
57576;DHT22;43412;-33.800;150.804;2023-05-27T02:44:34;26.20;70.00
57576;DHT22;43412;-33.800;150.804;2023-05-27T02:47:02;26.10;70.70
57576;DHT22;43412;-33.800;150.804;2023-05-27T02:49:29;25.70;71.00
57576;DHT22;43412;-33.800;150.804;2023-05-27T02:51:56;25.60;70.40
57576;DHT22;43412;-33.800;150.804;2023-05-27T02:54:23;25.40;71.20
57576;DHT22;43412;-33.800;150.804;2023-05-27T02:56:51;25.20;70.60
57576;DHT22;43412;-33.800;150.804;2023-05-27T02:59:19;24.80;69.80
57576;DHT22;43412;-33.800;150.804;2023-05-27T03:01:46;24.60;71.10
57576;DHT22;43412;-33.800;150.804;2023-05-27T03:04:13;24.50;71.90
57576;DHT22;43412;-33.800;150.804;2023-05-27T03:06:43;24.30;71.80
57576;DHT22;43412;-33.800;150.804;2023-05-27T03:09:10;24.20;72.20
57576;DHT22;43412;-33.800;150.804;2023-05-27T03:11:38;24.20;72.60
57576;DHT22;43412;-33.800;150.804;2023-05-27T03:14:05;24.20;73.40
57576;DHT22;43412;-33.800;150.804;2023-05-27T03:16:32;23.90;72.20
57576;DHT22;43412;-33.800;150.804;2023-05-27T03:19:00;23.70;72.80
57576;DHT22;43412;-33.800;150.804;2023-05-27T03:21:28;23.30;71.30
57576;DHT22;43412;-33.800;150.804;2023-05-27T03:23:56;22.90;73.50
57576;DHT22;43412;-33.800;150.804;2023-05-27T03:26:23;22.50;73.20
57576;DHT22;43412;-33.800;150.804;2023-05-27T03:28:51;22.20;75.10
57576;DHT22;43412;-33.800;150.804;2023-05-27T03:31:19;21.80;75.10
57576;DHT22;43412;-33.800;150.804;2023-05-27T03:33:46;21.40;76.00
57576;DHT22;43412;-33.800;150.804;2023-05-27T03:36:15;21.10;75.30
57576;DHT22;43412;-33.800;150.804;2023-05-27T03:38:42;20.90;76.50
57576;DHT22;43412;-33.800;150.804;2023-05-27T03:41:10;20.70;76.60
57576;DHT22;43412;-33.800;150.804;2023-05-27T03:43:37;20.40;77.70
57576;DHT22;43412;-33.800;150.804;2023-05-27T03:46:04;20.10;78.20
57576;DHT22;43412;-33.800;150.804;2023-05-27T03:48:33;19.80;77.50
57576;DHT22;43412;-33.800;150.804;2023-05-27T03:51:01;19.70;78.30
57576;DHT22;43412;-33.800;150.804;2023-05-27T03:53:28;19.40;78.90
57576;DHT22;43412;-33.800;150.804;2023-05-27T03:55:56;19.20;78.90
57576;DHT22;43412;-33.800;150.804;2023-05-27T03:58:23;19.00;79.80
57576;DHT22;43412;-33.800;150.804;2023-05-27T04:00:51;18.90;80.70
57576;DHT22;43412;-33.800;150.804;2023-05-27T04:03:19;18.80;81.10
57576;DHT22;43412;-33.800;150.804;2023-05-27T04:05:47;18.70;81.30
57576;DHT22;43412;-33.800;150.804;2023-05-27T04:08:14;18.70;80.90
57576;DHT22;43412;-33.800;150.804;2023-05-27T04:10:41;18.70;80.80
57576;DHT22;43412;-33.800;150.804;2023-05-27T04:13:09;18.50;81.90
57576;DHT22;43412;-33.800;150.804;2023-05-27T04:15:36;18.40;81.60
57576;DHT22;43412;-33.800;150.804;2023-05-27T04:18:05;18.30;81.90
57576;DHT22;43412;-33.800;150.804;2023-05-27T04:20:39;18.20;82.70
57576;DHT22;43412;-33.800;150.804;2023-05-27T04:23:09;18.00;83.40
57576;DHT22;43412;-33.800;150.804;2023-05-27T04:25:37;17.90;83.60
57576;DHT22;43412;-33.800;150.804;2023-05-27T04:28:06;17.90;84.00
57576;DHT22;43412;-33.800;150.804;2023-05-27T04:30:34;17.80;83.50
57576;DHT22;43412;-33.800;150.804;2023-05-27T04:33:02;17.80;85.30
57576;DHT22;43412;-33.800;150.804;2023-05-27T04:35:29;17.80;86.80
57576;DHT22;43412;-33.800;150.804;2023-05-27T04:37:57;17.60;87.30
57576;DHT22;43412;-33.800;150.804;2023-05-27T04:40:28;17.60;88.20
57576;DHT22;43412;-33.800;150.804;2023-05-27T04:43:00;17.40;88.40
57576;DHT22;43412;-33.800;150.804;2023-05-27T04:45:28;17.40;89.10
57576;DHT22;43412;-33.800;150.804;2023-05-27T04:47:56;17.40;89.20
57576;DHT22;43412;-33.800;150.804;2023-05-27T04:50:24;17.30;89.60
57576;DHT22;43412;-33.800;150.804;2023-05-27T04:52:51;17.20;89.90
57576;DHT22;43412;-33.800;150.804;2023-05-27T04:55:19;17.20;89.40
57576;DHT22;43412;-33.800;150.804;2023-05-27T04:57:47;17.10;89.30
57576;DHT22;43412;-33.800;150.804;2023-05-27T05:00:14;17.00;89.70
57576;DHT22;43412;-33.800;150.804;2023-05-27T05:02:45;16.90;89.80
57576;DHT22;43412;-33.800;150.804;2023-05-27T05:05:14;16.90;90.10
57576;DHT22;43412;-33.800;150.804;2023-05-27T05:07:42;16.80;90.00
57576;DHT22;43412;-33.800;150.804;2023-05-27T05:10:13;16.80;90.00
57576;DHT22;43412;-33.800;150.804;2023-05-27T05:12:40;16.70;90.00
57576;DHT22;43412;-33.800;150.804;2023-05-27T05:15:07;16.60;90.10
57576;DHT22;43412;-33.800;150.804;2023-05-27T05:17:35;16.50;90.00
57576;DHT22;43412;-33.800;150.804;2023-05-27T05:20:12;16.40;90.10
57576;DHT22;43412;-33.800;150.804;2023-05-27T05:22:42;16.40;90.30
57576;DHT22;43412;-33.800;150.804;2023-05-27T05:25:10;16.30;90.20
57576;DHT22;43412;-33.800;150.804;2023-05-27T05:27:37;16.30;90.10
57576;DHT22;43412;-33.800;150.804;2023-05-27T05:30:05;16.20;90.30
57576;DHT22;43412;-33.800;150.804;2023-05-27T05:32:33;16.20;90.40
57576;DHT22;43412;-33.800;150.804;2023-05-27T05:35:00;16.10;90.30
57576;DHT22;43412;-33.800;150.804;2023-05-27T05:37:27;16.10;90.30
57576;DHT22;43412;-33.800;150.804;2023-05-27T05:39:55;16.00;90.40
57576;DHT22;43412;-33.800;150.804;2023-05-27T05:42:22;15.80;90.50
57576;DHT22;43412;-33.800;150.804;2023-05-27T05:44:52;15.70;90.70
57576;DHT22;43412;-33.800;150.804;2023-05-27T05:47:19;15.60;90.90
57576;DHT22;43412;-33.800;150.804;2023-05-27T05:49:47;15.50;90.90
57576;DHT22;43412;-33.800;150.804;2023-05-27T05:52:16;15.40;91.00
57576;DHT22;43412;-33.800;150.804;2023-05-27T05:54:43;15.20;91.00
57576;DHT22;43412;-33.800;150.804;2023-05-27T05:57:11;15.10;91.10
57576;DHT22;43412;-33.800;150.804;2023-05-27T05:59:38;15.10;91.30
57576;DHT22;43412;-33.800;150.804;2023-05-27T06:02:06;15.00;91.30
57576;DHT22;43412;-33.800;150.804;2023-05-27T06:04:33;14.90;91.40
57576;DHT22;43412;-33.800;150.804;2023-05-27T06:07:01;14.80;91.40
57576;DHT22;43412;-33.800;150.804;2023-05-27T06:09:28;14.70;91.50
57576;DHT22;43412;-33.800;150.804;2023-05-27T06:11:56;14.70;91.70
57576;DHT22;43412;-33.800;150.804;2023-05-27T06:14:23;14.60;91.70
57576;DHT22;43412;-33.800;150.804;2023-05-27T06:16:50;14.70;91.80
57576;DHT22;43412;-33.800;150.804;2023-05-27T06:19:18;14.70;91.90
57576;DHT22;43412;-33.800;150.804;2023-05-27T06:21:45;14.70;92.00
57576;DHT22;43412;-33.800;150.804;2023-05-27T06:24:15;14.90;91.90
57576;DHT22;43412;-33.800;150.804;2023-05-27T06:26:43;15.00;91.80
57576;DHT22;43412;-33.800;150.804;2023-05-27T06:29:10;15.10;91.50
57576;DHT22;43412;-33.800;150.804;2023-05-27T06:31:38;15.10;91.60
57576;DHT22;43412;-33.800;150.804;2023-05-27T06:34:05;15.10;91.40
57576;DHT22;43412;-33.800;150.804;2023-05-27T06:36:32;15.00;91.50
57576;DHT22;43412;-33.800;150.804;2023-05-27T06:39:00;14.90;91.30
57576;DHT22;43412;-33.800;150.804;2023-05-27T06:41:27;14.80;91.40
57576;DHT22;43412;-33.800;150.804;2023-05-27T06:43:57;14.70;91.40
57576;DHT22;43412;-33.800;150.804;2023-05-27T06:46:25;14.50;91.70
57576;DHT22;43412;-33.800;150.804;2023-05-27T06:48:52;14.40;92.00
57576;DHT22;43412;-33.800;150.804;2023-05-27T06:51:21;14.20;92.30
57576;DHT22;43412;-33.800;150.804;2023-05-27T06:53:49;14.10;92.40
57576;DHT22;43412;-33.800;150.804;2023-05-27T06:56:17;13.90;92.60
57576;DHT22;43412;-33.800;150.804;2023-05-27T06:58:45;13.80;92.70
57576;DHT22;43412;-33.800;150.804;2023-05-27T07:01:12;13.60;93.00
57576;DHT22;43412;-33.800;150.804;2023-05-27T07:03:41;13.40;93.20
57576;DHT22;43412;-33.800;150.804;2023-05-27T07:06:08;13.30;93.40
57576;DHT22;43412;-33.800;150.804;2023-05-27T07:08:36;13.20;93.70
57576;DHT22;43412;-33.800;150.804;2023-05-27T07:11:03;13.10;94.00
57576;DHT22;43412;-33.800;150.804;2023-05-27T07:13:31;13.00;94.20
57576;DHT22;43412;-33.800;150.804;2023-05-27T07:15:58;12.90;94.40
57576;DHT22;43412;-33.800;150.804;2023-05-27T07:18:25;12.80;94.60
57576;DHT22;43412;-33.800;150.804;2023-05-27T07:20:53;12.70;94.90
57576;DHT22;43412;-33.800;150.804;2023-05-27T07:23:20;12.60;94.90
57576;DHT22;43412;-33.800;150.804;2023-05-27T07:25:48;12.40;95.10
57576;DHT22;43412;-33.800;150.804;2023-05-27T07:28:16;12.40;95.30
57576;DHT22;43412;-33.800;150.804;2023-05-27T07:30:43;12.30;95.60
57576;DHT22;43412;-33.800;150.804;2023-05-27T07:33:13;12.20;95.50
57576;DHT22;43412;-33.800;150.804;2023-05-27T07:35:43;12.10;95.80
57576;DHT22;43412;-33.800;150.804;2023-05-27T07:38:11;12.10;96.00
57576;DHT22;43412;-33.800;150.804;2023-05-27T07:40:38;12.00;96.10
57576;DHT22;43412;-33.800;150.804;2023-05-27T07:43:06;12.00;96.20
57576;DHT22;43412;-33.800;150.804;2023-05-27T07:45:33;11.80;96.20
57576;DHT22;43412;-33.800;150.804;2023-05-27T07:48:00;11.80;96.40
57576;DHT22;43412;-33.800;150.804;2023-05-27T07:50:28;11.70;96.50
57576;DHT22;43412;-33.800;150.804;2023-05-27T07:52:55;11.70;96.70
57576;DHT22;43412;-33.800;150.804;2023-05-27T07:55:22;11.60;97.00
57576;DHT22;43412;-33.800;150.804;2023-05-27T07:57:50;11.50;96.90
57576;DHT22;43412;-33.800;150.804;2023-05-27T08:00:17;11.50;97.10
57576;DHT22;43412;-33.800;150.804;2023-05-27T08:02:45;11.40;97.10
57576;DHT22;43412;-33.800;150.804;2023-05-27T08:05:15;11.30;97.40
57576;DHT22;43412;-33.800;150.804;2023-05-27T08:07:43;11.20;97.60
57576;DHT22;43412;-33.800;150.804;2023-05-27T08:10:12;11.20;97.50
57576;DHT22;43412;-33.800;150.804;2023-05-27T08:12:40;11.10;97.60
57576;DHT22;43412;-33.800;150.804;2023-05-27T08:15:07;11.00;97.60
57576;DHT22;43412;-33.800;150.804;2023-05-27T08:17:35;11.00;97.70
57576;DHT22;43412;-33.800;150.804;2023-05-27T08:20:02;10.90;97.70
57576;DHT22;43412;-33.800;150.804;2023-05-27T08:22:30;10.90;97.70
57576;DHT22;43412;-33.800;150.804;2023-05-27T08:24:57;10.90;97.80
57576;DHT22;43412;-33.800;150.804;2023-05-27T08:27:48;10.80;98.00
57576;DHT22;43412;-33.800;150.804;2023-05-27T08:30:16;10.80;97.80
57576;DHT22;43412;-33.800;150.804;2023-05-27T08:32:44;10.70;97.70
57576;DHT22;43412;-33.800;150.804;2023-05-27T08:35:11;10.70;97.70
57576;DHT22;43412;-33.800;150.804;2023-05-27T08:37:39;10.60;97.60
57576;DHT22;43412;-33.800;150.804;2023-05-27T08:40:17;10.60;97.60
57576;DHT22;43412;-33.800;150.804;2023-05-27T08:42:48;10.50;97.70
57576;DHT22;43412;-33.800;150.804;2023-05-27T08:45:16;10.50;97.80
57576;DHT22;43412;-33.800;150.804;2023-05-27T08:47:43;10.50;97.80
57576;DHT22;43412;-33.800;150.804;2023-05-27T08:50:12;10.50;97.80
57576;DHT22;43412;-33.800;150.804;2023-05-27T08:52:49;10.40;97.80
57576;DHT22;43412;-33.800;150.804;2023-05-27T08:55:21;10.30;97.90
57576;DHT22;43412;-33.800;150.804;2023-05-27T08:57:55;10.30;98.10
57576;DHT22;43412;-33.800;150.804;2023-05-27T09:00:25;10.30;98.30
57576;DHT22;43412;-33.800;150.804;2023-05-27T09:02:53;10.30;98.20
57576;DHT22;43412;-33.800;150.804;2023-05-27T09:05:26;10.30;98.20
57576;DHT22;43412;-33.800;150.804;2023-05-27T09:07:54;10.20;98.60
57576;DHT22;43412;-33.800;150.804;2023-05-27T09:10:22;10.20;98.80
57576;DHT22;43412;-33.800;150.804;2023-05-27T09:12:50;10.00;99.00
57576;DHT22;43412;-33.800;150.804;2023-05-27T09:15:18;10.00;99.10
57576;DHT22;43412;-33.800;150.804;2023-05-27T09:17:46;9.80;99.40
57576;DHT22;43412;-33.800;150.804;2023-05-27T09:20:13;9.80;99.70
57576;DHT22;43412;-33.800;150.804;2023-05-27T09:22:41;9.70;99.90
57576;DHT22;43412;-33.800;150.804;2023-05-27T09:25:09;9.60;99.90
57576;DHT22;43412;-33.800;150.804;2023-05-27T09:27:36;9.50;99.90
57576;DHT22;43412;-33.800;150.804;2023-05-27T09:30:09;9.40;99.90
57576;DHT22;43412;-33.800;150.804;2023-05-27T09:32:36;9.30;99.90
57576;DHT22;43412;-33.800;150.804;2023-05-27T09:35:06;9.20;99.90
57576;DHT22;43412;-33.800;150.804;2023-05-27T09:37:34;9.20;99.90
57576;DHT22;43412;-33.800;150.804;2023-05-27T09:42:45;9.00;99.90
57576;DHT22;43412;-33.800;150.804;2023-05-27T09:45:19;8.90;99.90
57576;DHT22;43412;-33.800;150.804;2023-05-27T09:47:51;8.80;99.90
57576;DHT22;43412;-33.800;150.804;2023-05-27T09:50:20;8.70;99.90
57576;DHT22;43412;-33.800;150.804;2023-05-27T09:52:48;8.50;99.90
57576;DHT22;43412;-33.800;150.804;2023-05-27T09:55:16;8.50;99.90
57576;DHT22;43412;-33.800;150.804;2023-05-27T09:57:44;8.40;99.90
57576;DHT22;43412;-33.800;150.804;2023-05-27T10:00:12;8.40;99.90
57576;DHT22;43412;-33.800;150.804;2023-05-27T10:02:51;8.30;99.90
57576;DHT22;43412;-33.800;150.804;2023-05-27T10:05:18;8.20;99.90
57576;DHT22;43412;-33.800;150.804;2023-05-27T10:07:47;8.20;99.90
57576;DHT22;43412;-33.800;150.804;2023-05-27T10:10:18;8.10;99.90
57576;DHT22;43412;-33.800;150.804;2023-05-27T10:12:48;8.00;99.90
57576;DHT22;43412;-33.800;150.804;2023-05-27T10:15:33;7.90;99.90
57576;DHT22;43412;-33.800;150.804;2023-05-27T10:18:03;7.90;99.90
57576;DHT22;43412;-33.800;150.804;2023-05-27T10:20:42;7.90;99.90
57576;DHT22;43412;-33.800;150.804;2023-05-27T10:26:01;7.80;99.90
57576;DHT22;43412;-33.800;150.804;2023-05-27T10:31:07;7.80;99.90
57576;DHT22;43412;-33.800;150.804;2023-05-27T10:33:45;7.80;99.90
57576;DHT22;43412;-33.800;150.804;2023-05-27T10:36:17;7.70;99.90
57576;DHT22;43412;-33.800;150.804;2023-05-27T10:38:55;7.60;99.90
57576;DHT22;43412;-33.800;150.804;2023-05-27T10:41:23;7.50;99.90
57576;DHT22;43412;-33.800;150.804;2023-05-27T10:43:57;7.50;99.90
57576;DHT22;43412;-33.800;150.804;2023-05-27T10:46:25;7.50;99.90
57576;DHT22;43412;-33.800;150.804;2023-05-27T10:48:53;7.40;99.90
57576;DHT22;43412;-33.800;150.804;2023-05-27T10:51:30;7.30;99.90
57576;DHT22;43412;-33.800;150.804;2023-05-27T10:54:02;7.30;99.90
57576;DHT22;43412;-33.800;150.804;2023-05-27T10:56:31;7.20;99.90
57576;DHT22;43412;-33.800;150.804;2023-05-27T10:59:01;7.20;99.90
57576;DHT22;43412;-33.800;150.804;2023-05-27T11:01:32;7.20;99.90
57576;DHT22;43412;-33.800;150.804;2023-05-27T11:04:00;7.20;99.90
57576;DHT22;43412;-33.800;150.804;2023-05-27T11:06:27;7.20;99.90
57576;DHT22;43412;-33.800;150.804;2023-05-27T11:08:56;7.20;99.90
57576;DHT22;43412;-33.800;150.804;2023-05-27T11:11:23;7.10;99.90
57576;DHT22;43412;-33.800;150.804;2023-05-27T11:13:51;7.10;99.90
57576;DHT22;43412;-33.800;150.804;2023-05-27T11:16:19;7.10;99.90
57576;DHT22;43412;-33.800;150.804;2023-05-27T11:18:47;7.20;99.90
57576;DHT22;43412;-33.800;150.804;2023-05-27T11:21:16;7.10;99.90
57576;DHT22;43412;-33.800;150.804;2023-05-27T11:23:47;7.20;99.90
57576;DHT22;43412;-33.800;150.804;2023-05-27T11:26:24;7.20;99.90
57576;DHT22;43412;-33.800;150.804;2023-05-27T11:28:55;7.30;99.90
57576;DHT22;43412;-33.800;150.804;2023-05-27T11:31:28;7.30;99.90
57576;DHT22;43412;-33.800;150.804;2023-05-27T11:33:56;7.40;99.90
57576;DHT22;43412;-33.800;150.804;2023-05-27T11:36:28;7.40;99.90
57576;DHT22;43412;-33.800;150.804;2023-05-27T11:38:59;7.40;99.90
57576;DHT22;43412;-33.800;150.804;2023-05-27T11:41:28;7.40;99.90
57576;DHT22;43412;-33.800;150.804;2023-05-27T11:44:15;7.40;99.90
57576;DHT22;43412;-33.800;150.804;2023-05-27T11:46:44;7.40;99.90
57576;DHT22;43412;-33.800;150.804;2023-05-27T11:49:16;7.50;99.90
57576;DHT22;43412;-33.800;150.804;2023-05-27T11:51:45;7.40;99.90
57576;DHT22;43412;-33.800;150.804;2023-05-27T11:54:24;7.40;99.90
57576;DHT22;43412;-33.800;150.804;2023-05-27T11:56:53;7.40;99.90
57576;DHT22;43412;-33.800;150.804;2023-05-27T11:59:23;7.40;99.90
57576;DHT22;43412;-33.800;150.804;2023-05-27T12:01:51;7.40;99.90
57576;DHT22;43412;-33.800;150.804;2023-05-27T12:04:20;7.30;99.90
57576;DHT22;43412;-33.800;150.804;2023-05-27T12:06:48;7.20;99.90
57576;DHT22;43412;-33.800;150.804;2023-05-27T12:09:15;7.20;99.90
57576;DHT22;43412;-33.800;150.804;2023-05-27T12:11:43;7.00;99.90
57576;DHT22;43412;-33.800;150.804;2023-05-27T12:14:10;6.90;99.90
57576;DHT22;43412;-33.800;150.804;2023-05-27T12:16:37;6.80;99.90
57576;DHT22;43412;-33.800;150.804;2023-05-27T12:19:05;6.70;99.90
57576;DHT22;43412;-33.800;150.804;2023-05-27T12:21:34;6.60;99.90
57576;DHT22;43412;-33.800;150.804;2023-05-27T12:24:02;6.60;99.90
57576;DHT22;43412;-33.800;150.804;2023-05-27T12:26:29;6.50;99.90
57576;DHT22;43412;-33.800;150.804;2023-05-27T12:28:57;6.40;99.90
57576;DHT22;43412;-33.800;150.804;2023-05-27T12:31:24;6.30;99.90
57576;DHT22;43412;-33.800;150.804;2023-05-27T12:33:52;6.20;99.90
57576;DHT22;43412;-33.800;150.804;2023-05-27T12:36:19;6.20;99.90
57576;DHT22;43412;-33.800;150.804;2023-05-27T12:38:47;6.20;99.90
57576;DHT22;43412;-33.800;150.804;2023-05-27T12:41:15;6.30;99.90
57576;DHT22;43412;-33.800;150.804;2023-05-27T12:43:42;6.20;99.90
57576;DHT22;43412;-33.800;150.804;2023-05-27T12:46:10;6.20;99.90
57576;DHT22;43412;-33.800;150.804;2023-05-27T12:48:37;6.10;99.90
57576;DHT22;43412;-33.800;150.804;2023-05-27T12:51:05;6.10;99.90
57576;DHT22;43412;-33.800;150.804;2023-05-27T12:53:32;6.10;99.90
57576;DHT22;43412;-33.800;150.804;2023-05-27T12:56:00;6.10;99.90
57576;DHT22;43412;-33.800;150.804;2023-05-27T12:58:27;6.00;99.90
57576;DHT22;43412;-33.800;150.804;2023-05-27T13:00:55;6.00;99.90
57576;DHT22;43412;-33.800;150.804;2023-05-27T13:03:22;6.00;99.90
57576;DHT22;43412;-33.800;150.804;2023-05-27T13:05:50;5.90;99.90
57576;DHT22;43412;-33.800;150.804;2023-05-27T13:08:18;5.80;99.90
57576;DHT22;43412;-33.800;150.804;2023-05-27T13:10:46;5.80;99.90
57576;DHT22;43412;-33.800;150.804;2023-05-27T13:13:13;5.70;99.90
57576;DHT22;43412;-33.800;150.804;2023-05-27T13:15:40;5.70;99.90
57576;DHT22;43412;-33.800;150.804;2023-05-27T13:18:08;5.70;99.90
57576;DHT22;43412;-33.800;150.804;2023-05-27T13:20:37;5.60;99.90
57576;DHT22;43412;-33.800;150.804;2023-05-27T13:23:04;5.60;99.90
57576;DHT22;43412;-33.800;150.804;2023-05-27T13:25:32;5.60;99.90
57576;DHT22;43412;-33.800;150.804;2023-05-27T13:27:59;5.50;99.90
57576;DHT22;43412;-33.800;150.804;2023-05-27T13:30:27;5.40;99.90
57576;DHT22;43412;-33.800;150.804;2023-05-27T13:32:55;5.40;99.90
57576;DHT22;43412;-33.800;150.804;2023-05-27T13:35:23;5.40;99.90
57576;DHT22;43412;-33.800;150.804;2023-05-27T13:37:50;5.30;99.90
57576;DHT22;43412;-33.800;150.804;2023-05-27T13:40:19;5.20;99.90
57576;DHT22;43412;-33.800;150.804;2023-05-27T13:42:46;5.20;99.90
57576;DHT22;43412;-33.800;150.804;2023-05-27T13:45:13;5.10;99.90
57576;DHT22;43412;-33.800;150.804;2023-05-27T13:47:41;5.10;99.90
57576;DHT22;43412;-33.800;150.804;2023-05-27T13:50:11;5.10;99.90
57576;DHT22;43412;-33.800;150.804;2023-05-27T13:52:38;5.10;99.90
57576;DHT22;43412;-33.800;150.804;2023-05-27T13:55:07;5.10;99.90
57576;DHT22;43412;-33.800;150.804;2023-05-27T13:57:35;5.10;99.90
57576;DHT22;43412;-33.800;150.804;2023-05-27T14:00:03;5.10;99.90
57576;DHT22;43412;-33.800;150.804;2023-05-27T14:02:32;5.10;99.90
57576;DHT22;43412;-33.800;150.804;2023-05-27T14:05:00;5.10;99.90
57576;DHT22;43412;-33.800;150.804;2023-05-27T14:07:28;5.00;99.90
57576;DHT22;43412;-33.800;150.804;2023-05-27T14:09:55;5.00;99.90
57576;DHT22;43412;-33.800;150.804;2023-05-27T14:12:23;4.90;99.90
57576;DHT22;43412;-33.800;150.804;2023-05-27T14:14:52;4.90;99.90
57576;DHT22;43412;-33.800;150.804;2023-05-27T14:17:19;5.00;99.90
57576;DHT22;43412;-33.800;150.804;2023-05-27T14:19:46;5.00;99.90
57576;DHT22;43412;-33.800;150.804;2023-05-27T14:22:14;5.10;99.90
57576;DHT22;43412;-33.800;150.804;2023-05-27T14:24:42;5.10;99.90
57576;DHT22;43412;-33.800;150.804;2023-05-27T14:27:09;5.00;99.90
57576;DHT22;43412;-33.800;150.804;2023-05-27T14:29:37;5.00;99.90
57576;DHT22;43412;-33.800;150.804;2023-05-27T14:32:05;5.00;99.90
57576;DHT22;43412;-33.800;150.804;2023-05-27T14:34:33;4.90;99.90
57576;DHT22;43412;-33.800;150.804;2023-05-27T14:37:01;4.80;99.90
57576;DHT22;43412;-33.800;150.804;2023-05-27T14:39:28;4.80;99.90
57576;DHT22;43412;-33.800;150.804;2023-05-27T14:41:55;4.70;99.90
57576;DHT22;43412;-33.800;150.804;2023-05-27T14:44:23;4.60;99.90
57576;DHT22;43412;-33.800;150.804;2023-05-27T14:46:50;4.60;99.90
57576;DHT22;43412;-33.800;150.804;2023-05-27T14:49:18;4.50;99.90
57576;DHT22;43412;-33.800;150.804;2023-05-27T14:51:46;4.50;99.90
57576;DHT22;43412;-33.800;150.804;2023-05-27T14:54:13;4.40;99.90
57576;DHT22;43412;-33.800;150.804;2023-05-27T14:56:40;4.40;99.90
57576;DHT22;43412;-33.800;150.804;2023-05-27T14:59:08;4.40;99.90
57576;DHT22;43412;-33.800;150.804;2023-05-27T15:01:35;4.40;99.90
57576;DHT22;43412;-33.800;150.804;2023-05-27T15:04:03;4.30;99.90
57576;DHT22;43412;-33.800;150.804;2023-05-27T15:06:31;4.40;99.90
57576;DHT22;43412;-33.800;150.804;2023-05-27T15:09:00;4.30;99.90
57576;DHT22;43412;-33.800;150.804;2023-05-27T15:11:27;4.30;99.90
57576;DHT22;43412;-33.800;150.804;2023-05-27T15:13:55;4.30;99.90